Time;durP1;ratioP1;P1;durP2;ratioP2;P2;SDS_P1;SDS_P2;PMS_P1;PMS_P2;Temp;Humidity;BMP_temperature;BMP_pressure;BME280_temperature;BME280_humidity;BME280_pressure;Samples;Min_cycle;Max_cycle;Signal;HPM_P1;HPM_P2
2023/01/09 00:00:43;;;;;;;11.70;7.40;;;;;;;-144.31;100.00;58022.63;5048665;28;20041;-60
2023/01/09 00:03:09;;;;;;;12.57;7.50;;;;;;;-144.31;100.00;58022.63;5055947;28;20372;-60
2023/01/09 00:05:34;;;;;;;11.80;7.45;;;;;;;-144.31;100.00;58022.63;5057042;28;20509;-59
2023/01/09 00:08:01;;;;;;;11.02;7.95;;;;;;;-144.31;100.00;58022.63;5052979;28;20040;-61
2023/01/09 00:10:27;;;;;;;14.88;7.53;;;;;;;-144.31;100.00;58022.63;5051463;28;21093;-61
2023/01/09 00:12:52;;;;;;;11.90;7.40;;;;;;;-144.31;100.00;58022.63;5057003;28;20040;-60
2023/01/09 00:15:18;;;;;;;10.07;6.70;;;;;;;-144.31;100.00;58022.63;5058112;28;20426;-60
2023/01/09 00:17:43;;;;;;;10.45;7.00;;;;;;;-144.31;100.00;58022.63;5056962;28;20137;-60
2023/01/09 00:20:10;;;;;;;10.15;6.65;;;;;;;-144.31;100.00;58022.63;5054491;28;20154;-61
2023/01/09 00:22:36;;;;;;;17.03;8.93;;;;;;;-144.31;100.00;58022.63;5052917;28;20040;-60
2023/01/09 00:25:02;;;;;;;59.10;23.70;;;;;;;-144.31;100.00;58022.63;5057420;28;20796;-59
2023/01/09 00:27:33;;;;;;;53.40;21.48;;;;;;;-144.31;100.00;58022.63;5054813;28;20037;-59
2023/01/09 00:29:59;;;;;;;39.55;16.08;;;;;;;-144.31;100.00;58022.63;5051829;28;20071;-60
2023/01/09 00:32:25;;;;;;;48.20;19.83;;;;;;;-144.31;100.00;58022.63;5061888;28;20078;-59
2023/01/09 00:34:51;;;;;;;68.35;25.13;;;;;;;-144.31;100.00;58022.63;5056113;28;20028;-60
2023/01/09 00:37:17;;;;;;;91.40;29.67;;;;;;;-144.31;100.00;58022.63;5059631;28;20570;-59
2023/01/09 00:39:42;;;;;;;104.72;30.75;;;;;;;-144.31;100.00;58022.63;5053162;28;20037;-60
2023/01/09 00:42:15;;;;;;;105.57;32.42;;;;;;;-144.31;100.00;58022.63;5054963;28;20095;-61
2023/01/09 00:45:09;;;;;;;41.53;16.55;;;;;;;-144.31;100.00;58022.63;5054200;28;20055;-60
2023/01/09 00:47:46;;;;;;;27.52;14.43;;;;;;;-144.31;100.00;58022.63;5054936;28;20053;-60
2023/01/09 00:50:19;;;;;;;16.90;10.05;;;;;;;-144.31;100.00;58022.63;5054065;28;20048;-59
2023/01/09 00:52:46;;;;;;;16.63;11.77;;;;;;;-144.31;100.00;58022.63;5054383;28;20409;-60
2023/01/09 00:55:12;;;;;;;17.92;12.07;;;;;;;-144.31;100.00;58022.63;5053366;28;20052;-60
2023/01/09 00:57:41;;;;;;;13.73;10.75;;;;;;;-144.31;100.00;58022.63;5052879;28;20044;-59
2023/01/09 01:00:08;;;;;;;12.70;9.02;;;;;;;-144.31;100.00;58022.63;5054708;28;20048;-60
2023/01/09 01:02:35;;;;;;;13.68;10.95;;;;;;;-144.31;100.00;58022.63;5053034;28;20480;-61
2023/01/09 01:07:48;;;;;;;15.48;12.43;;;;;;;-144.31;100.00;58022.63;5055464;28;20033;-61
2023/01/09 01:10:20;;;;;;;13.50;10.73;;;;;;;-144.31;100.00;58022.63;5054211;28;20468;-60
2023/01/09 01:12:46;;;;;;;12.85;8.55;;;;;;;-144.31;100.00;58022.63;5050845;28;20056;-60
2023/01/09 01:15:12;;;;;;;13.98;7.80;;;;;;;-144.31;100.00;58022.63;5055465;28;20410;-60
2023/01/09 01:18:14;;;;;;;11.35;7.38;;;;;;;-144.31;100.00;58022.63;5052082;28;20029;-60
2023/01/09 01:20:42;;;;;;;10.05;6.80;;;;;;;-144.31;100.00;58022.63;5054516;28;20044;-60
2023/01/09 01:23:10;;;;;;;10.85;6.80;;;;;;;-144.31;100.00;58022.63;5054788;28;20055;-60
2023/01/09 01:25:38;;;;;;;11.63;7.30;;;;;;;-144.31;100.00;58022.63;5053648;28;20091;-60
2023/01/09 01:28:04;;;;;;;;;;;;;;;-144.31;100.00;58022.63;5055161;28;20045;-60
2023/01/09 01:30:30;;;;;;;8.70;5.63;;;;;;;-144.31;100.00;58022.63;5053344;28;19917;-60
2023/01/09 01:32:56;;;;;;;8.32;5.70;;;;;;;-144.31;100.00;58022.63;5052231;28;20401;-60
2023/01/09 01:35:21;;;;;;;8.13;5.38;;;;;;;-144.31;100.00;58022.63;5051862;28;20155;-60
2023/01/09 01:37:48;;;;;;;10.38;5.28;;;;;;;-144.31;100.00;58022.63;5053080;28;20120;-61
2023/01/09 01:40:14;;;;;;;7.88;4.85;;;;;;;-144.31;100.00;58022.63;5055506;28;20040;-60
2023/01/09 01:42:48;;;;;;;8.70;5.40;;;;;;;-144.31;100.00;58022.63;5052221;28;20405;-60
2023/01/09 01:45:15;;;;;;;9.05;5.55;;;;;;;-144.31;100.00;58022.63;5054346;28;20043;-60
2023/01/09 01:47:51;;;;;;;7.80;4.80;;;;;;;-144.31;100.00;58022.63;5056015;28;20040;-60
2023/01/09 01:50:23;;;;;;;8.35;4.63;;;;;;;-144.31;100.00;58022.63;5048825;28;20052;-61
2023/01/09 01:52:58;;;;;;;5.90;4.15;;;;;;;-144.31;100.00;58022.63;5051939;28;20047;-60
2023/01/09 01:55:23;;;;;;;5.20;3.80;;;;;;;-144.31;100.00;58022.63;5053974;28;20045;-59
2023/01/09 01:57:54;;;;;;;5.05;3.50;;;;;;;-144.31;100.00;58022.63;5055640;28;20378;-60
2023/01/09 02:00:24;;;;;;;5.30;3.38;;;;;;;-144.31;100.00;58022.63;5054241;28;20366;-60
2023/01/09 02:02:50;;;;;;;5.30;3.38;;;;;;;-144.31;100.00;58022.63;5053580;28;20067;-60
2023/01/09 02:05:15;;;;;;;5.60;3.13;;;;;;;-144.31;100.00;58022.63;5054285;28;20409;-60
2023/01/09 02:07:40;;;;;;;4.20;3.10;;;;;;;-144.31;100.00;58022.63;5054317;28;20051;-59
2023/01/09 02:10:07;;;;;;;4.93;3.30;;;;;;;-144.31;100.00;58022.63;5052333;28;20044;-59
2023/01/09 02:12:32;;;;;;;4.60;3.22;;;;;;;-144.31;100.00;58022.63;5050799;28;20210;-60
2023/01/09 02:15:05;;;;;;;5.18;2.90;;;;;;;-144.31;100.00;58022.63;5055325;28;20049;-60
2023/01/09 02:17:37;;;;;;;3.95;2.70;;;;;;;-144.31;100.00;58022.63;5053141;28;20482;-60
2023/01/09 02:20:02;;;;;;;4.30;2.45;;;;;;;-144.31;100.00;58022.63;5052771;28;20076;-60
2023/01/09 02:22:36;;;;;;;4.38;2.40;;;;;;;-144.31;100.00;58022.63;5053902;28;20060;-60
2023/01/09 02:25:31;;;;;;;3.33;1.80;;;;;;;-144.31;100.00;58022.63;5052546;28;20075;-60
2023/01/09 02:28:25;;;;;;;4.20;2.20;;;;;;;-144.31;100.00;58022.63;5044756;28;20053;-60
2023/01/09 02:31:04;;;;;;;3.75;2.00;;;;;;;-144.31;100.00;58022.63;5060018;28;20044;-60
2023/01/09 02:33:46;;;;;;;3.55;2.15;;;;;;;-144.31;100.00;58022.63;5054411;28;20047;-60
2023/01/09 02:36:33;;;;;;;2.47;1.77;;;;;;;-144.31;100.00;58022.63;5054357;28;20045;-59
2023/01/09 02:39:10;;;;;;;2.13;1.65;;;;;;;-144.31;100.00;58022.63;5060144;28;20115;-60
2023/01/09 02:41:47;;;;;;;;;;;;;;;-144.31;100.00;58022.63;5056536;28;20472;-59
2023/01/09 02:44:23;;;;;;;2.10;1.58;;;;;;;-144.31;100.00;58022.63;5059559;28;19923;-60
2023/01/09 02:47:01;;;;;;;2.88;1.50;;;;;;;-144.31;100.00;58022.63;5054900;28;20051;-60
2023/01/09 02:49:27;;;;;;;2.22;1.70;;;;;;;-144.31;100.00;58022.63;5056195;28;20486;-60
2023/01/09 02:52:20;;;;;;;1.98;1.60;;;;;;;-144.31;100.00;58022.63;5057684;28;20247;-60
2023/01/09 02:54:55;;;;;;;2.40;1.70;;;;;;;-144.31;100.00;58022.63;5057144;28;20099;-59
2023/01/09 02:57:34;;;;;;;2.88;1.63;;;;;;;-144.31;100.00;58022.63;5056295;28;20143;-60
2023/01/09 03:00:08;;;;;;;1.50;1.40;;;;;;;-144.31;100.00;58022.63;5062791;28;20408;-61
2023/01/09 03:02:38;;;;;;;1.70;1.60;;;;;;;-144.31;100.00;58022.63;5055998;28;20114;-61
2023/01/09 03:05:19;;;;;;;1.92;1.60;;;;;;;-144.31;100.00;58022.63;5054839;28;20051;-61
2023/01/09 03:08:00;;;;;;;1.83;1.60;;;;;;;-144.31;100.00;58022.63;5059112;28;20048;-60
2023/01/09 03:10:29;;;;;;;2.55;1.63;;;;;;;-144.31;100.00;58022.63;5055360;28;20044;-60
2023/01/09 03:12:58;;;;;;;1.85;1.40;;;;;;;-144.31;100.00;58022.63;5056232;28;20029;-59
2023/01/09 03:15:27;;;;;;;1.42;1.33;;;;;;;-144.31;100.00;58022.63;5054947;28;20095;-61
2023/01/09 03:17:54;;;;;;;1.40;1.30;;;;;;;-144.31;100.00;58022.63;5055429;28;20055;-60
2023/01/09 03:20:26;;;;;;;2.75;1.23;;;;;;;-144.31;100.00;58022.63;5057713;28;20041;-59
2023/01/09 03:22:57;;;;;;;1.40;1.30;;;;;;;-144.31;100.00;58022.63;5054619;28;20037;-60
2023/01/09 03:25:24;;;;;;;1.38;1.27;;;;;;;-144.31;100.00;58022.63;5053094;28;20068;-61
2023/01/09 03:27:56;;;;;;;2.35;1.27;;;;;;;-144.31;100.00;58022.63;5052808;28;20282;-61
2023/01/09 03:30:21;;;;;;;1.30;1.20;;;;;;;-144.31;100.00;58022.63;5055804;28;20055;-61
2023/01/09 03:32:47;;;;;;;1.35;1.25;;;;;;;-144.31;100.00;58022.63;5053324;28;20040;-60
2023/01/09 03:35:12;;;;;;;1.38;1.23;;;;;;;-144.31;100.00;58022.63;5060497;28;20486;-61
2023/01/09 03:37:37;;;;;;;2.55;1.25;;;;;;;-144.31;100.00;58022.63;5054090;28;20077;-60
2023/01/09 03:40:03;;;;;;;1.10;1.10;;;;;;;-144.31;100.00;58022.63;5052214;28;20350;-59
2023/01/09 03:42:29;;;;;;;1.42;1.30;;;;;;;-144.31;100.00;58022.63;5054291;28;20045;-59
2023/01/09 03:44:54;;;;;;;1.23;1.13;;;;;;;-144.31;100.00;58022.63;5055545;28;20062;-59
2023/01/09 03:47:20;;;;;;;2.35;1.35;;;;;;;-144.31;100.00;58022.63;5053798;28;20391;-59
2023/01/09 03:49:45;;;;;;;1.30;1.20;;;;;;;-144.31;100.00;58022.63;5055773;28;20036;-59
2023/01/09 03:52:12;;;;;;;1.10;1.10;;;;;;;-144.31;100.00;58022.63;5054587;28;20411;-59
2023/01/09 03:54:38;;;;;;;1.52;1.20;;;;;;;-144.31;100.00;58022.63;5053589;28;20035;-59
2023/01/09 03:57:04;;;;;;;1.75;1.35;;;;;;;-144.31;100.00;58022.63;5055200;28;20114;-59
2023/01/09 03:59:29;;;;;;;1.40;1.30;;;;;;;-144.31;100.00;58022.63;5059788;28;20441;-59
2023/01/09 04:01:55;;;;;;;2.88;1.50;;;;;;;-144.31;100.00;58022.63;5053840;28;20052;-60
2023/01/09 04:04:20;;;;;;;1.73;1.38;;;;;;;-144.31;100.00;58022.63;5053267;28;20051;-59
2023/01/09 04:06:45;;;;;;;1.42;1.27;;;;;;;-144.31;100.00;58022.63;5053213;28;20076;-59
2023/01/09 04:09:11;;;;;;;1.55;1.40;;;;;;;-144.31;100.00;58022.63;5052292;28;20064;-58
2023/01/09 04:11:36;;;;;;;1.35;1.23;;;;;;;-144.31;100.00;58022.63;5055966;28;20115;-58
2023/01/09 04:14:02;;;;;;;1.30;1.20;;;;;;;-144.31;100.00;58022.63;5050515;28;20048;-58
2023/01/09 04:16:27;;;;;;;1.40;1.30;;;;;;;-144.31;100.00;58022.63;5051363;28;20037;-58
2023/01/09 04:18:52;;;;;;;1.23;1.10;;;;;;;-144.31;100.00;58022.63;5053624;28;20037;-55
2023/01/09 04:21:18;;;;;;;1.00;1.00;;;;;;;-144.31;100.00;58022.63;5055331;28;20098;-54
2023/01/09 04:23:44;;;;;;;0.88;0.88;;;;;;;-144.31;100.00;58022.63;5052438;28;20041;-52
2023/01/09 04:26:09;;;;;;;0.88;0.88;;;;;;;-144.31;100.00;58022.63;5053946;28;20509;-58
2023/01/09 04:28:35;;;;;;;0.80;0.80;;;;;;;-144.31;100.00;58022.63;5056456;28;20040;-56
2023/01/09 04:31:01;;;;;;;0.80;0.80;;;;;;;-144.31;100.00;58022.63;5053974;28;20044;-55
2023/01/09 04:33:27;;;;;;;1.10;1.00;;;;;;;-144.31;100.00;58022.63;5050694;28;20745;-53
2023/01/09 04:35:53;;;;;;;1.27;1.10;;;;;;;-144.31;100.00;58022.63;5056489;28;20063;-57
2023/01/09 04:38:18;;;;;;;1.05;0.93;;;;;;;-144.31;100.00;58022.63;5056986;28;20384;-55
2023/01/09 04:40:47;;;;;;;0.90;0.90;;;;;;;-144.31;100.00;58022.63;5055095;28;20025;-57
2023/01/09 04:43:13;;;;;;;4.95;1.15;;;;;;;-144.31;100.00;58022.63;5052793;28;20059;-57
2023/01/09 04:45:38;;;;;;;1.67;1.20;;;;;;;-144.31;100.00;58022.63;5055669;28;20036;-58
2023/01/09 04:48:04;;;;;;;1.20;1.10;;;;;;;-144.31;100.00;58022.63;5054063;28;20441;-57
2023/01/09 04:50:29;;;;;;;1.00;1.00;;;;;;;-144.31;100.00;58022.63;5054598;28;20220;-58
2023/01/09 04:52:55;;;;;;;1.70;1.15;;;;;;;-144.31;100.00;58022.63;5053717;28;20036;-59
2023/01/09 04:55:21;;;;;;;0.80;0.80;;;;;;;-144.31;100.00;58022.63;5051660;28;20033;-58
2023/01/09 04:57:46;;;;;;;1.13;1.08;;;;;;;-144.31;100.00;58022.63;5052705;28;20063;-59
2023/01/09 05:00:12;;;;;;;1.90;1.10;;;;;;;-144.31;100.00;58022.63;5052082;28;20041;-59
2023/01/09 05:02:39;;;;;;;1.77;1.10;;;;;;;-144.31;100.00;58022.63;5054341;28;20036;-59
2023/01/09 05:05:06;;;;;;;1.13;1.13;;;;;;;-144.31;100.00;58022.63;5052993;28;20052;-59
2023/01/09 05:07:32;;;;;;;1.48;1.38;;;;;;;-144.31;100.00;58022.63;5052969;28;20056;-59
2023/01/09 05:09:57;;;;;;;1.00;1.00;;;;;;;-144.31;100.00;58022.63;5052320;28;20033;-59
2023/01/09 05:12:23;;;;;;;1.40;1.13;;;;;;;-144.31;100.00;58022.63;5050857;28;20482;-59
2023/01/09 05:14:48;;;;;;;1.13;1.10;;;;;;;-144.31;100.00;58022.63;5054052;28;20048;-59
2023/01/09 05:17:13;;;;;;;1.25;1.13;;;;;;;-144.31;100.00;58022.63;5055660;28;20492;-59
2023/01/09 05:19:39;;;;;;;4.95;1.92;;;;;;;-144.31;100.00;58022.63;5053906;28;20044;-59
2023/01/09 05:22:04;;;;;;;2.65;1.45;;;;;;;-144.31;100.00;58022.63;5052072;28;20421;-60
2023/01/09 05:24:33;;;;;;;3.05;1.70;;;;;;;-144.31;100.00;58022.63;5055509;28;20068;-59
2023/01/09 05:26:58;;;;;;;2.75;1.65;;;;;;;-144.31;100.00;58022.63;5052927;28;20503;-59
2023/01/09 05:29:24;;;;;;;2.60;1.90;;;;;;;-144.31;100.00;58022.63;5054357;28;20041;-60
2023/01/09 05:31:51;;;;;;;1.75;1.60;;;;;;;-144.31;100.00;58022.63;5052585;28;20060;-60
2023/01/09 05:34:16;;;;;;;1.48;1.30;;;;;;;-144.31;100.00;58022.63;5052123;28;20496;-59
2023/01/09 05:36:42;;;;;;;5.30;1.35;;;;;;;-144.31;100.00;58022.63;5055113;28;20090;-60
2023/01/09 05:39:07;;;;;;;2.42;1.45;;;;;;;-144.31;100.00;58022.63;5051942;28;20061;-60
2023/01/09 05:41:33;;;;;;;3.15;1.90;;;;;;;-144.31;100.00;58022.63;5053417;28;20047;-60
2023/01/09 05:43:58;;;;;;;2.75;1.70;;;;;;;-144.31;100.00;58022.63;5037612;28;20048;-59
2023/01/09 05:46:24;;;;;;;1.50;1.30;;;;;;;-144.31;100.00;58022.63;5051762;28;20033;-60
2023/01/09 05:48:49;;;;;;;3.50;1.45;;;;;;;-144.31;100.00;58022.63;5053568;28;20033;-59
2023/01/09 05:51:14;;;;;;;2.17;1.50;;;;;;;-144.31;100.00;58022.63;5051518;28;20287;-60
2023/01/09 05:53:40;;;;;;;2.05;1.40;;;;;;;-144.31;100.00;58022.63;5051360;28;20071;-60
2023/01/09 05:56:05;;;;;;;2.50;1.23;;;;;;;-144.31;100.00;58022.63;5051923;28;20049;-59
2023/01/09 05:58:31;;;;;;;2.00;1.42;;;;;;;-144.31;100.00;58022.63;5053678;28;20242;-59
2023/01/09 06:00:57;;;;;;;2.10;1.35;;;;;;;-144.31;100.00;58022.63;5056690;28;20044;-59
2023/01/09 06:03:23;;;;;;;2.93;1.73;;;;;;;-144.31;100.00;58022.63;5048536;28;20094;-60
2023/01/09 06:05:50;;;;;;;1.88;1.42;;;;;;;-144.31;100.00;58022.63;5052913;28;20397;-60
2023/01/09 06:08:16;;;;;;;2.25;1.33;;;;;;;-144.31;100.00;58022.63;5048919;28;20247;-60
2023/01/09 06:10:41;;;;;;;4.25;1.67;;;;;;;-144.31;100.00;58022.63;5048964;28;20392;-61
2023/01/09 06:13:07;;;;;;;2.15;1.50;;;;;;;-144.31;100.00;58022.63;5058735;28;20449;-66
2023/01/09 06:15:32;;;;;;;1.95;1.58;;;;;;;-144.31;100.00;58022.63;5056950;28;20033;-61
2023/01/09 06:17:58;;;;;;;4.32;1.80;;;;;;;-144.31;100.00;58022.63;5057930;28;20041;-60
2023/01/09 06:20:24;;;;;;;2.88;1.45;;;;;;;-144.31;100.00;58022.63;5053366;28;20044;-60
2023/01/09 06:22:51;;;;;;;2.50;1.50;;;;;;;-144.31;100.00;58022.63;5047191;28;20041;-60
2023/01/09 06:25:16;;;;;;;5.97;1.77;;;;;;;-144.31;100.00;58022.63;5055357;28;20041;-59
2023/01/09 06:27:42;;;;;;;1.98;1.48;;;;;;;-144.31;100.00;58022.63;5052201;28;20032;-60
2023/01/09 06:30:08;;;;;;;3.25;1.70;;;;;;;-144.31;100.00;58022.63;5049993;28;20123;-60
2023/01/09 06:32:33;;;;;;;2.75;1.30;;;;;;;-144.31;100.00;58022.63;5056235;28;20069;-60
2023/01/09 06:34:59;;;;;;;2.03;1.50;;;;;;;-144.31;100.00;58022.63;5053347;28;20206;-60
2023/01/09 06:37:24;;;;;;;5.22;2.20;;;;;;;-144.31;100.00;58022.63;5051398;28;20094;-65
2023/01/09 06:39:50;;;;;;;4.18;1.60;;;;;;;-144.31;100.00;58022.63;5055442;28;20033;-60
2023/01/09 06:42:15;;;;;;;2.25;1.60;;;;;;;-144.31;100.00;58022.63;5055595;28;20561;-59
2023/01/09 06:44:41;;;;;;;2.15;1.60;;;;;;;-144.31;100.00;58022.63;5056248;28;20047;-60
2023/01/09 06:47:06;;;;;;;2.13;1.60;;;;;;;-144.31;100.00;58022.63;5060657;28;20044;-59
2023/01/09 06:49:32;;;;;;;2.78;1.80;;;;;;;-144.31;100.00;58022.63;5051909;28;20032;-59
2023/01/09 06:51:57;;;;;;;3.67;2.10;;;;;;;-144.31;100.00;58022.63;5057105;28;20074;-59
2023/01/09 06:54:23;;;;;;;3.67;1.80;;;;;;;-144.31;100.00;58022.63;5053744;28;20041;-59
2023/01/09 06:56:48;;;;;;;4.07;2.05;;;;;;;-144.31;100.00;58022.63;5052582;28;20146;-59
2023/01/09 06:59:13;;;;;;;5.43;2.05;;;;;;;-144.31;100.00;58022.63;5058485;28;20051;-60
2023/01/09 07:01:39;;;;;;;4.65;2.10;;;;;;;-144.31;100.00;58022.63;5063733;28;20043;-60
2023/01/09 07:04:11;;;;;;;2.85;1.80;;;;;;;-144.31;100.00;58022.63;5047630;28;20127;-60
2023/01/09 07:06:37;;;;;;;3.72;2.00;;;;;;;-144.31;100.00;58022.63;5058072;28;20068;-60
2023/01/09 07:09:04;;;;;;;8.77;2.30;;;;;;;-144.31;100.00;58022.63;5060176;28;20152;-59
2023/01/09 07:11:30;;;;;;;6.30;1.80;;;;;;;-144.31;100.00;58022.63;5043796;28;20044;-59
2023/01/09 07:13:55;;;;;;;5.57;2.00;;;;;;;-144.31;100.00;58022.63;5043064;28;20025;-60
2023/01/09 07:16:21;;;;;;;4.05;2.10;;;;;;;-144.31;100.00;58022.63;5047135;28;20032;-61
2023/01/09 07:18:46;;;;;;;5.20;2.10;;;;;;;-144.31;100.00;58022.63;5054382;28;20500;-59
2023/01/09 07:21:12;;;;;;;3.28;1.90;;;;;;;-144.31;100.00;58022.63;5055798;28;20730;-59
2023/01/09 07:23:37;;;;;;;5.13;1.33;;;;;;;-144.31;100.00;58022.63;5057916;28;20388;-60
2023/01/09 07:26:03;;;;;;;3.85;2.08;;;;;;;-144.31;100.00;58022.63;5049067;28;20422;-58
2023/01/09 07:28:28;;;;;;;2.20;1.30;;;;;;;-144.31;100.00;58022.63;5062332;28;20111;-60
2023/01/09 07:30:54;;;;;;;3.67;1.50;;;;;;;-144.31;100.00;58022.63;5050562;28;20039;-61
2023/01/09 07:33:23;;;;;;;3.65;1.55;;;;;;;-144.31;100.00;58022.63;5052288;28;20047;-60
2023/01/09 07:35:50;;;;;;;3.72;1.40;;;;;;;-144.31;100.00;58022.63;5046561;28;20328;-60
2023/01/09 07:38:15;;;;;;;4.15;1.58;;;;;;;-144.31;100.00;58022.63;5054001;28;21247;-60
2023/01/09 07:40:41;;;;;;;7.82;1.80;;;;;;;-144.31;100.00;58022.63;5062617;28;20658;-59
2023/01/09 07:43:07;;;;;;;3.60;1.92;;;;;;;-144.31;100.00;58022.63;5054922;28;20159;-61
2023/01/09 07:45:33;;;;;;;2.08;1.30;;;;;;;-144.31;100.00;58022.63;5064315;28;20056;-61
2023/01/09 07:48:00;;;;;;;2.78;1.45;;;;;;;-144.31;100.00;58022.63;5056843;28;20482;-60
2023/01/09 07:50:26;;;;;;;5.55;1.40;;;;;;;-144.31;100.00;58022.63;5058932;28;20055;-61
2023/01/09 07:52:51;;;;;;;4.78;1.58;;;;;;;-144.31;100.00;58022.63;5058010;28;20398;-61
2023/01/09 07:55:17;;;;;;;8.60;2.38;;;;;;;-144.31;100.00;58022.63;5044420;28;20109;-60
2023/01/09 07:57:46;;;;;;;5.38;1.50;;;;;;;-144.31;100.00;58022.63;5060742;28;20337;-60
2023/01/09 08:00:12;;;;;;;6.53;1.60;;;;;;;-144.31;100.00;58022.63;5055076;28;20051;-60
2023/01/09 08:02:37;;;;;;;5.93;1.90;;;;;;;-144.31;100.00;58022.63;5050860;28;20237;-61
2023/01/09 08:05:03;;;;;;;5.13;1.67;;;;;;;-144.31;100.00;58022.63;5051995;28;20128;-59
2023/01/09 08:07:28;;;;;;;5.95;1.95;;;;;;;-144.31;100.00;58022.63;5046326;28;20155;-61
2023/01/09 08:09:54;;;;;;;5.57;1.70;;;;;;;-144.31;100.00;58022.63;5050493;28;20503;-60
2023/01/09 08:12:19;;;;;;;3.83;1.40;;;;;;;-144.31;100.00;58022.63;5056624;28;20525;-59
2023/01/09 08:14:45;;;;;;;2.10;1.40;;;;;;;-144.31;100.00;58022.63;5049735;28;20737;-59
2023/01/09 08:17:10;;;;;;;4.90;1.58;;;;;;;-144.31;100.00;58022.63;5058870;28;20044;-59
2023/01/09 08:19:37;;;;;;;5.25;1.73;;;;;;;-144.31;100.00;58022.63;5055882;28;20032;-60
2023/01/09 08:22:03;;;;;;;4.93;1.45;;;;;;;-144.31;100.00;58022.63;5051064;28;20555;-59
2023/01/09 08:24:30;;;;;;;3.35;1.60;;;;;;;-144.31;100.00;58022.63;5054869;28;20064;-60
2023/01/09 08:26:56;;;;;;;3.88;1.60;;;;;;;-144.31;100.00;58022.63;5049099;28;20032;-60
2023/01/09 08:29:21;;;;;;;5.78;1.63;;;;;;;-144.31;100.00;58022.63;5060534;28;20040;-60
2023/01/09 08:31:46;;;;;;;4.88;1.75;;;;;;;-144.31;100.00;58022.63;5046131;28;20353;-60
2023/01/09 08:34:13;;;;;;;4.80;1.65;;;;;;;-144.31;100.00;58022.63;5050054;28;20110;-60
2023/01/09 08:36:39;;;;;;;5.50;1.70;;;;;;;-144.31;100.00;58022.63;5051063;28;20283;-60
2023/01/09 08:39:04;;;;;;;4.38;2.70;;;;;;;-144.31;100.00;58022.63;5052858;28;20036;-60
2023/01/09 08:47:06;;;;;;;3.50;1.30;;;;;;;-144.31;100.00;58022.63;5041471;28;20040;-60
2023/01/09 08:49:36;;;;;;;4.65;2.20;;;;;;;-144.31;100.00;58022.63;5055194;28;20500;-60
2023/01/09 08:52:03;;;;;;;5.75;3.00;;;;;;;-144.31;100.00;58022.63;5046667;28;20033;-60
2023/01/09 08:54:28;;;;;;;9.88;2.80;;;;;;;-144.31;100.00;58022.63;5049030;28;20559;-59
2023/01/09 08:56:54;;;;;;;2.22;1.42;;;;;;;-144.31;100.00;58022.63;5059361;28;20032;-59
2023/01/09 08:59:20;;;;;;;7.20;2.90;;;;;;;-144.31;100.00;58022.63;5053813;28;20115;-59
2023/01/09 09:01:45;;;;;;;4.05;1.40;;;;;;;-144.31;100.00;58022.63;5055733;28;20143;-59
2023/01/09 09:04:10;;;;;;;4.97;1.65;;;;;;;-144.31;100.00;58022.63;5045805;28;20044;-60
2023/01/09 09:06:36;;;;;;;3.05;1.30;;;;;;;-144.31;100.00;58022.63;5044878;28;20044;-60
2023/01/09 09:09:02;;;;;;;4.60;1.70;;;;;;;-144.31;100.00;58022.63;5053819;28;20039;-61
2023/01/09 09:11:32;;;;;;;5.40;1.63;;;;;;;-144.31;100.00;58022.63;5050164;28;20154;-61
2023/01/09 09:13:57;;;;;;;4.55;2.17;;;;;;;-144.31;100.00;58022.63;5050639;28;20037;-61
2023/01/09 09:16:24;;;;;;;4.88;2.00;;;;;;;-144.31;100.00;58022.63;5047453;28;20044;-61
2023/01/09 09:18:50;;;;;;;3.53;1.58;;;;;;;-144.31;100.00;58022.63;5046942;28;20115;-61
2023/01/09 09:21:15;;;;;;;3.13;1.55;;;;;;;-144.31;100.00;58022.63;5050176;28;20435;-62
2023/01/09 09:23:43;;;;;;;9.68;2.03;;;;;;;-144.31;100.00;58022.63;5052907;28;20032;-61
2023/01/09 09:26:09;;;;;;;2.78;1.45;;;;;;;-144.31;100.00;58022.63;5067776;28;20089;-62
2023/01/09 09:28:34;;;;;;;7.55;1.80;;;;;;;-144.31;100.00;58022.63;5053673;28;20044;-62
2023/01/09 09:31:00;;;;;;;4.20;1.50;;;;;;;-144.31;100.00;58022.63;5043310;28;20700;-61
2023/01/09 09:33:25;;;;;;;2.47;1.40;;;;;;;-144.31;100.00;58022.63;5052102;28;20098;-60
2023/01/09 09:35:51;;;;;;;3.28;1.38;;;;;;;-144.31;100.00;58022.63;5051942;28;20141;-60
2023/01/09 09:38:16;;;;;;;2.60;1.15;;;;;;;-144.31;100.00;58022.63;5054695;28;20051;-60
2023/01/09 09:41:07;;;;;;;3.50;1.63;;;;;;;-144.31;100.00;58022.63;5050578;28;20024;-60
2023/01/09 09:46:54;;;;;;;4.40;1.25;;;;;;;-144.31;100.00;58022.63;5041199;28;20036;-61
2023/01/09 09:49:34;;;;;;;3.22;1.30;;;;;;;-144.31;100.00;58022.63;5051393;28;20044;-61
2023/01/09 09:52:28;;;;;;;3.42;1.35;;;;;;;-144.31;100.00;58022.63;5043948;28;20083;-60
2023/01/09 09:54:58;;;;;;;5.75;1.75;;;;;;;-144.31;100.00;58022.63;5045143;28;20123;-59
2023/01/09 09:57:33;;;;;;;3.13;1.67;;;;;;;-144.31;100.00;58022.63;5048945;28;20496;-59
2023/01/09 10:00:00;;;;;;;3.78;1.65;;;;;;;-144.31;100.00;58022.63;5042472;28;20126;-60
2023/01/09 10:02:31;;;;;;;4.68;2.15;;;;;;;-144.31;100.00;58022.63;5048701;28;20032;-60
2023/01/09 10:05:12;;;;;;;5.75;2.38;;;;;;;-144.31;100.00;58022.63;5042086;28;20028;-60
2023/01/09 10:07:46;;;;;;;1.20;1.10;;;;;;;-144.31;100.00;58022.63;5044944;28;20025;-60
2023/01/09 10:10:23;;;;;;;4.75;2.08;;;;;;;-144.31;100.00;58022.63;5048063;28;20036;-59
2023/01/09 10:12:58;;;;;;;4.50;1.65;;;;;;;-144.31;100.00;58022.63;5047198;28;20045;-60
2023/01/09 10:15:43;;;;;;;6.97;1.60;;;;;;;-144.31;100.00;58022.63;5041944;28;20512;-60
2023/01/09 10:18:31;;;;;;;3.95;1.77;;;;;;;-144.31;100.00;58022.63;5047111;28;20037;-60
2023/01/09 10:21:32;;;;;;;4.82;1.70;;;;;;;-144.31;100.00;58022.63;5044712;28;20049;-61
2023/01/09 10:24:15;;;;;;;4.15;1.55;;;;;;;-144.31;100.00;58022.63;5032263;28;20037;-60
2023/01/09 10:26:50;;;;;;;3.45;1.50;;;;;;;-144.31;100.00;58022.63;5050753;28;20068;-61
2023/01/09 10:29:24;;;;;;;2.55;1.27;;;;;;;-144.31;100.00;58022.63;5041342;28;20028;-61
2023/01/09 10:31:50;;;;;;;6.43;2.55;;;;;;;-144.31;100.00;58022.63;5045796;28;20143;-61
2023/01/09 10:34:24;;;;;;;15.18;5.78;;;;;;;-144.31;100.00;58022.63;5048731;28;20698;-61
2023/01/09 10:37:28;;;;;;;4.03;1.67;;;;;;;-144.31;100.00;58022.63;5043874;28;20040;-61
2023/01/09 10:39:59;;;;;;;3.30;1.70;;;;;;;-144.31;100.00;58022.63;5002531;28;20137;-61
2023/01/09 10:42:30;;;;;;;4.57;2.10;;;;;;;-144.31;100.00;58022.63;5050622;28;20043;-61
2023/01/09 10:44:56;;;;;;;6.07;2.13;;;;;;;-144.31;100.00;58022.63;5047114;28;20040;-61
2023/01/09 10:47:33;;;;;;;2.92;1.48;;;;;;;-144.31;100.00;58022.63;5045660;28;20477;-61
2023/01/09 10:50:01;;;;;;;6.90;1.93;;;;;;;-144.31;100.00;58022.63;5058079;28;20041;-61
2023/01/09 10:52:40;;;;;;;4.50;1.60;;;;;;;-144.31;100.00;58022.63;5049370;28;20296;-61
2023/01/09 10:55:31;;;;;;;2.85;1.60;;;;;;;-144.31;100.00;58022.63;5057537;28;20582;-62
2023/01/09 10:58:00;;;;;;;7.97;1.60;;;;;;;-144.31;100.00;58022.63;5056613;28;20098;-61
2023/01/09 11:00:27;;;;;;;4.22;1.45;;;;;;;-144.31;100.00;58022.63;5052628;28;20033;-61
2023/01/09 11:02:53;;;;;;;5.07;1.65;;;;;;;-144.31;100.00;58022.63;5054687;28;20044;-61
2023/01/09 11:05:22;;;;;;;3.15;1.30;;;;;;;-144.31;100.00;58022.63;5051360;28;20027;-61
2023/01/09 11:08:28;;;;;;;3.60;1.30;;;;;;;-144.31;100.00;58022.63;5047197;28;20052;-61
2023/01/09 11:10:55;;;;;;;5.30;1.60;;;;;;;-144.31;100.00;58022.63;5054073;28;20100;-61
2023/01/09 11:13:22;;;;;;;;;;;;;;;-144.31;100.00;58022.63;5051058;28;20055;-60
2023/01/09 11:16:04;;;;;;;2.53;1.40;;;;;;;-144.31;100.00;58022.63;5048643;28;19920;-61
2023/01/09 11:18:31;;;;;;;8.23;1.38;;;;;;;-144.31;100.00;58022.63;5055836;28;20040;-62
2023/01/09 11:21:29;;;;;;;5.35;1.40;;;;;;;-144.31;100.00;58022.63;5054853;28;20068;-61
2023/01/09 11:23:55;;;;;;;4.53;1.35;;;;;;;-144.31;100.00;58022.63;5049960;28;20381;-61
2023/01/09 11:26:27;;;;;;;3.20;1.42;;;;;;;-144.31;100.00;58022.63;5052051;28;20058;-61
2023/01/09 11:29:13;;;;;;;4.28;1.58;;;;;;;-144.31;100.00;58022.63;5046033;28;20068;-61